createdAt,value
2023-01-04T00:02:15.926Z,-81.80976
2023-01-04T00:07:16.968Z,-81.41653
2023-01-04T00:12:17.916Z,-80.81831
2023-01-04T00:17:18.913Z,-79.59214
2023-01-04T00:22:19.866Z,-79.09546
2023-01-04T00:27:21.000Z,-78.44432
2023-01-04T00:32:21.969Z,-77.95216
2023-01-04T00:37:22.973Z,-77.39223
2023-01-04T00:42:23.943Z,-76.08431
2023-01-04T00:47:24.876Z,-75.10252
2023-01-04T00:52:25.822Z,-74.51153
2023-01-04T00:57:27.089Z,-73.70505
2023-01-04T01:02:28.638Z,-72.93753
2023-01-04T01:07:29.846Z,-71.21369
2023-01-04T01:12:30.778Z,-70.83333
2023-01-04T01:17:31.806Z,-71.15518
2023-01-04T01:22:32.785Z,-71.6079
2023-01-04T01:27:33.717Z,-71.51293
2023-01-04T01:32:34.653Z,-71.60555
2023-01-04T01:37:35.607Z,-71.09447
2023-01-04T01:42:36.510Z,-70.07303
2023-01-04T01:47:37.452Z,-70.84678
2023-01-04T01:52:38.394Z,-71.11302
2023-01-04T01:57:39.415Z,-70.48035
2023-01-04T02:02:40.494Z,-70.81198
2023-01-04T02:07:41.605Z,-69.89825
2023-01-04T02:12:42.553Z,-69.33852
2023-01-04T02:17:43.523Z,-68.31678
2023-01-04T02:22:44.432Z,-66.83419
2023-01-04T02:27:45.396Z,-64.64346
2023-01-04T02:32:46.341Z,-63.32406
2023-01-04T02:37:47.287Z,-62.00544
2023-01-04T02:42:48.212Z,-61.44784
2023-01-04T02:47:49.199Z,-60.62783
2023-01-04T02:52:50.179Z,-59.90518
2023-01-04T02:57:51.140Z,-58.74579
2023-01-04T03:02:52.197Z,-58.94226
2023-01-04T03:07:53.185Z,-59.03288
2023-01-04T03:12:54.177Z,-57.33373
2023-01-04T03:17:55.174Z,-57.09687
2023-01-04T03:22:56.131Z,-56.44971
2023-01-04T03:27:57.125Z,-54.97921
2023-01-04T03:32:58.048Z,-54.52975
2023-01-04T03:37:58.994Z,-53.50941
2023-01-04T03:42:59.924Z,-52.89564
2023-01-04T03:48:00.902Z,-51.98
2023-01-04T03:53:01.928Z,-51.257
2023-01-04T03:58:02.897Z,-50.20009
2023-01-04T04:03:03.832Z,-49.75158
2023-01-04T04:08:04.787Z,-48.61776
2023-01-04T04:13:05.751Z,-48.11332
2023-01-04T04:18:06.779Z,-47.18537
2023-01-04T04:23:07.728Z,-46.15299
2023-01-04T04:28:08.723Z,-45.31656
2023-01-04T04:33:09.701Z,-44.6542
2023-01-04T04:38:10.635Z,-43.20606
2023-01-04T04:43:11.596Z,-42.73497
2023-01-04T04:48:12.532Z,-41.47766
2023-01-04T04:53:13.469Z,-41.08665
2023-01-04T04:58:14.423Z,-39.53117
2023-01-04T05:03:15.780Z,-37.71013
2023-01-04T05:08:16.813Z,-36.557
2023-01-04T05:13:17.776Z,-35.78507
2023-01-04T05:18:18.759Z,-34.92276
2023-01-04T05:23:19.678Z,-33.91168
2023-01-04T05:28:20.651Z,-32.84078
2023-01-04T05:33:21.591Z,-30.88621
2023-01-04T05:38:22.517Z,-29.79797
2023-01-04T05:43:23.435Z,-28.20609
2023-01-04T05:48:24.412Z,-27.09782
2023-01-04T05:53:25.380Z,-26.47443
2023-01-04T05:58:26.374Z,-25.83428
2023-01-04T06:03:27.829Z,-24.76543
2023-01-04T06:08:29.037Z,-24.19695
2023-01-04T06:13:30.011Z,-23.39778
2023-01-04T06:18:30.988Z,-22.22338
2023-01-04T06:23:31.897Z,-22.75415
2023-01-04T06:28:38.616Z,-22.14049
2023-01-04T06:33:41.856Z,-20.48217
2023-01-04T06:38:42.805Z,-20.18745
2023-01-04T06:43:43.759Z,-18.49383
2023-01-04T06:48:44.717Z,-17.49848
2023-01-04T06:53:45.752Z,-17.27484
2023-01-04T06:58:46.756Z,-16.45904
2023-01-04T07:03:47.690Z,-15.7125
2023-01-04T07:08:48.617Z,-15.31225
2023-01-04T07:13:49.533Z,-14.52794
2023-01-04T07:18:50.579Z,-12.77782
2023-01-04T07:23:51.502Z,-12.13383
2023-01-04T07:28:52.444Z,-12.19673
2023-01-04T07:33:53.324Z,-11.39168
2023-01-04T07:38:54.283Z,-10.87712
2023-01-04T07:43:55.237Z,-10.64154
2023-01-04T07:48:56.204Z,-9.72845
2023-01-04T07:53:57.103Z,-9.10014
2023-01-04T07:58:58.053Z,-8.46063
2023-01-04T08:03:59.032Z,-7.14885
2023-01-04T08:09:00.049Z,-6.34317
2023-01-04T08:14:01.264Z,-4.82535
2023-01-04T08:19:02.301Z,-3.71949
2023-01-04T08:24:03.270Z,-3.0348
2023-01-04T08:29:04.334Z,-1.978
2023-01-04T08:34:05.400Z,-1.34361
2023-01-04T08:39:06.399Z,-2.08101
2023-01-04T08:44:07.458Z,-1.74057
2023-01-04T08:49:08.493Z,-0.86233
2023-01-04T08:54:09.459Z,0.133
2023-01-04T08:59:10.586Z,-0.16786
2023-01-04T09:04:11.584Z,-0.25178
2023-01-04T09:09:12.814Z,0.09453
2023-01-04T09:14:13.830Z,0.41204
2023-01-04T09:19:21.387Z,0.76271
2023-01-04T09:24:23.070Z,0.54294
2023-01-04T09:29:24.088Z,1.40511
2023-01-04T09:34:25.016Z,1.95782
2023-01-04T09:39:26.040Z,3.25398
2023-01-04T09:44:46.325Z,4.65549
2023-01-04T09:50:04.718Z,4.6702
2023-01-04T09:55:37.078Z,5.94573
2023-01-04T10:00:43.940Z,5.60478
2023-01-04T10:05:45.291Z,7.62041
2023-01-04T10:10:46.248Z,8.7267
2023-01-04T10:15:47.255Z,9.88941
2023-01-04T10:21:29.563Z,10.29178
2023-01-04T10:26:33.604Z,11.25636
2023-01-04T10:31:39.411Z,12.33033
2023-01-04T10:36:42.117Z,13.51311
2023-01-04T10:41:43.069Z,12.59742
2023-01-04T10:46:44.167Z,14.20882
2023-01-04T10:51:45.155Z,14.98582
2023-01-04T10:56:46.103Z,16.88497
2023-01-04T11:01:47.258Z,18.11616
2023-01-04T11:06:48.294Z,19.23148
2023-01-04T11:11:49.299Z,19.42651
2023-01-04T11:16:50.269Z,19.83586
2023-01-04T11:21:51.310Z,21.00091
2023-01-04T11:26:52.251Z,22.05713
2023-01-04T11:31:53.303Z,22.98967
2023-01-04T11:36:54.272Z,23.27778
2023-01-04T11:42:00.568Z,23.46463
2023-01-04T11:47:03.840Z,23.97763
2023-01-04T11:52:04.813Z,24.64513
2023-01-04T11:57:11.414Z,25.99543
2023-01-04T12:02:23.660Z,26.50936
2023-01-04T12:07:43.639Z,27.52689
2023-01-04T12:12:44.640Z,28.31969
2023-01-04T12:17:45.584Z,29.61294
2023-01-04T12:22:46.513Z,30.03554
2023-01-04T12:27:47.543Z,30.44323
2023-01-04T12:32:48.597Z,30.91776
2023-01-04T12:37:49.831Z,31.02261
2023-01-04T12:42:50.868Z,31.01954
2023-01-04T12:47:51.802Z,31.75124
2023-01-04T12:58:11.778Z,33.71217
2023-01-04T13:03:13.021Z,33.98664
2023-01-04T13:08:14.110Z,34.75423
2023-01-04T13:13:15.251Z,35.00204
2023-01-04T13:18:16.272Z,35.75958
2023-01-04T13:23:17.359Z,36.23689
2023-01-04T13:28:18.422Z,37.08724
2023-01-04T13:33:26.859Z,37.34719
2023-01-04T13:38:29.109Z,38.43339
2023-01-04T13:43:30.077Z,38.40288
2023-01-04T13:48:31.025Z,39.66095
2023-01-04T13:53:31.988Z,38.96673
2023-01-04T13:58:32.923Z,41.90019
2023-01-04T14:03:34.012Z,40.80996
2023-01-04T14:08:35.020Z,41.29676
2023-01-04T14:13:36.002Z,40.5781
2023-01-04T14:18:36.953Z,41.89249
2023-01-04T14:23:38.009Z,41.48813
2023-01-04T14:28:44.900Z,41.84987
2023-01-04T14:33:50.341Z,42.18643
2023-01-04T14:38:51.430Z,42.53496
2023-01-04T14:43:52.372Z,43.55348
2023-01-04T14:48:53.408Z,43.90602
2023-01-04T14:53:54.347Z,44.05725
2023-01-04T14:58:55.332Z,44.73206
2023-01-04T15:03:56.485Z,45.51867
2023-01-04T15:08:57.559Z,45.85345
2023-01-04T15:13:58.490Z,45.34713
2023-01-04T15:18:59.428Z,46.7836
2023-01-04T15:24:00.395Z,47.48753
2023-01-04T15:29:01.590Z,47.36079
2023-01-04T15:34:02.558Z,47.66195
2023-01-04T15:39:03.487Z,48.16194
2023-01-04T15:44:04.515Z,48.6436
2023-01-04T15:49:05.475Z,48.37529
2023-01-04T15:54:06.425Z,49.21588
2023-01-04T15:59:07.377Z,50.27554
2023-01-04T16:04:08.355Z,51.38939
2023-01-04T16:09:09.309Z,52.03678
2023-01-04T16:14:10.235Z,52.18536
2023-01-04T16:19:11.244Z,52.42311
2023-01-04T16:24:29.552Z,53.89518
2023-01-04T16:30:00.966Z,54.38895
2023-01-04T16:35:01.974Z,54.82244
2023-01-04T16:40:07.588Z,55.5374
2023-01-04T16:45:11.258Z,54.77066
2023-01-04T16:50:12.419Z,55.76334
2023-01-04T16:55:15.274Z,56.90431
2023-01-04T17:00:19.521Z,58.98156
2023-01-04T17:05:20.721Z,59.0722
2023-01-04T17:10:25.571Z,59.91635
2023-01-04T17:15:44.297Z,59.42628
2023-01-04T17:20:45.733Z,59.84348
2023-01-04T17:25:46.679Z,59.14136
2023-01-04T17:30:47.690Z,60.05198
2023-01-04T17:35:48.682Z,60.93629
2023-01-04T17:40:49.661Z,63.1917
2023-01-04T17:45:50.736Z,62.75804
2023-01-04T17:50:51.808Z,63.29829
2023-01-04T17:55:52.759Z,64.41308
2023-01-04T18:00:53.739Z,64.71499
2023-01-04T18:06:07.057Z,63.55505
2023-01-04T18:11:25.261Z,63.79736
2023-01-04T18:16:26.632Z,64.98266
2023-01-04T18:21:29.641Z,65.02013
2023-01-04T18:26:41.544Z,63.30885
2023-01-04T18:31:54.960Z,65.44544
2023-01-04T18:36:55.999Z,65.90336
2023-01-04T18:41:56.952Z,65.50751
2023-01-04T18:46:57.862Z,66.35619
2023-01-04T18:51:58.769Z,66.82344
2023-01-04T18:57:01.330Z,67.10471
2023-01-04T19:02:03.508Z,68.22063
2023-01-04T19:07:04.911Z,68.78099
2023-01-04T19:12:05.865Z,69.11209
2023-01-04T19:17:06.829Z,68.56225
2023-01-04T19:22:07.865Z,68.54609
2023-01-04T19:27:08.862Z,69.43142
2023-01-04T19:32:09.832Z,69.08672
2023-01-04T19:37:10.770Z,69.75072
2023-01-04T19:42:11.716Z,70.29441
2023-01-04T19:47:12.656Z,70.52225
2023-01-04T19:52:13.629Z,70.20347
2023-01-04T19:57:14.581Z,70.59742
2023-01-04T20:02:15.788Z,70.6144
2023-01-04T20:07:16.930Z,71.49363
2023-01-04T20:12:17.900Z,72.64009
2023-01-04T20:17:18.918Z,72.81961
2023-01-04T20:22:19.970Z,72.60147
2023-01-04T20:27:21.075Z,73.69676
2023-01-04T20:32:22.025Z,73.44148
2023-01-04T20:37:23.004Z,73.73544
2023-01-04T20:42:23.943Z,73.67797
2023-01-04T20:47:24.902Z,73.79672
2023-01-04T20:52:25.869Z,73.53883
2023-01-04T20:57:26.840Z,74.22534
2023-01-04T21:02:30.209Z,74.27462
2023-01-04T21:07:34.025Z,73.34683
2023-01-04T21:12:35.081Z,73.38872
2023-01-04T21:17:36.086Z,73.70762
2023-01-04T21:22:37.088Z,74.1917
2023-01-04T21:27:38.071Z,74.54584
2023-01-04T21:32:39.013Z,74.92129
2023-01-04T21:37:39.960Z,76.1558
2023-01-04T21:42:40.920Z,76.17313
2023-01-04T21:47:41.908Z,74.69041
2023-01-04T21:52:42.867Z,75.10969
2023-01-04T21:57:43.857Z,75.42314
2023-01-04T22:02:44.977Z,73.42005
2023-01-04T22:07:46.079Z,74.16131
2023-01-04T22:12:47.029Z,74.98802
2023-01-04T22:17:48.044Z,76.63118
2023-01-04T22:22:49.029Z,76.5489
2023-01-04T22:27:50.062Z,75.96793
2023-01-04T22:32:51.092Z,77.72733
2023-01-04T22:37:52.528Z,76.97961
2023-01-04T22:42:53.484Z,76.73673
2023-01-04T22:47:54.458Z,76.1457
2023-01-04T22:52:55.551Z,75.22343
2023-01-04T22:57:57.021Z,75.30402
2023-01-04T23:02:58.092Z,74.98526
2023-01-04T23:07:59.086Z,75.5797
2023-01-04T23:13:00.027Z,74.86998
2023-01-04T23:18:00.957Z,75.8545
2023-01-04T23:23:01.883Z,77.09899
2023-01-04T23:28:02.929Z,77.4862
2023-01-04T23:33:03.859Z,77.51491
2023-01-04T23:38:04.817Z,77.64702
2023-01-04T23:43:05.752Z,77.77329
2023-01-04T23:48:06.752Z,77.34796
2023-01-04T23:53:07.723Z,77.62196
2023-01-04T23:58:08.676Z,77.76858
